createdAt,value
2023-02-11T00:01:28.564Z,76.68
2023-02-11T00:03:59.903Z,81.07
2023-02-11T00:06:31.789Z,87.07
2023-02-11T00:09:02.454Z,72.93
2023-02-11T00:11:33.088Z,73.55
2023-02-11T00:14:05.025Z,77.35
2023-02-11T00:16:36.026Z,73.03
2023-02-11T00:19:08.129Z,71.93
2023-02-11T00:21:38.632Z,70.75
2023-02-11T00:24:09.184Z,73.95
2023-02-11T00:26:39.326Z,74.55
2023-02-11T00:29:09.769Z,83.20
2023-02-11T00:31:40.090Z,79.00
2023-02-11T00:34:10.850Z,73.70
2023-02-11T00:36:41.421Z,79.15
2023-02-11T00:39:11.693Z,75.75
2023-02-11T00:41:42.350Z,74.95
2023-02-11T00:44:12.798Z,72.53
2023-02-11T00:46:43.654Z,85.30
2023-02-11T00:49:14.433Z,97.00
2023-02-11T00:51:44.818Z,118.60
2023-02-11T00:54:15.671Z,87.43
2023-02-11T00:56:46.069Z,75.78
2023-02-11T00:59:16.465Z,72.60
2023-02-11T01:01:49.075Z,68.75
2023-02-11T01:04:19.225Z,68.15
2023-02-11T01:06:50.086Z,66.93
2023-02-11T01:09:21.179Z,69.15
2023-02-11T01:11:51.988Z,72.05
2023-02-11T01:14:22.036Z,67.93
2023-02-11T01:16:54.367Z,66.75
2023-02-11T01:19:24.869Z,62.55
2023-02-11T01:21:54.972Z,63.88
2023-02-11T01:24:25.088Z,65.07
2023-02-11T01:26:55.730Z,65.63
2023-02-11T01:29:27.338Z,63.35
2023-02-11T01:31:57.853Z,64.03
2023-02-11T01:34:29.216Z,67.03
2023-02-11T01:37:01.325Z,64.10
2023-02-11T01:39:35.510Z,62.55
2023-02-11T01:42:06.146Z,71.47
2023-02-11T01:44:38.674Z,65.50
2023-02-11T01:47:09.350Z,62.33
2023-02-11T01:49:42.248Z,64.68
2023-02-11T01:52:15.282Z,69.15
2023-02-11T01:55:07.420Z,73.63
2023-02-11T01:57:38.857Z,69.80
2023-02-11T02:00:18.245Z,71.78
2023-02-11T02:02:55.749Z,65.57
2023-02-11T02:05:33.967Z,59.97
2023-02-11T02:08:23.675Z,61.28
2023-02-11T02:10:58.079Z,60.05
2023-02-11T02:13:29.044Z,63.85
2023-02-11T02:16:03.609Z,62.60
2023-02-11T02:18:54.824Z,62.10
2023-02-11T02:21:34.473Z,63.58
2023-02-11T02:24:23.875Z,63.45
2023-02-11T02:27:14.153Z,61.55
2023-02-11T02:30:03.739Z,61.05
2023-02-11T02:32:37.656Z,63.03
2023-02-11T02:35:27.361Z,61.85
2023-02-11T02:38:17.783Z,56.35
2023-02-11T02:40:51.374Z,60.45
2023-02-11T02:43:22.285Z,62.38
2023-02-11T02:45:52.923Z,64.13
2023-02-11T02:48:30.908Z,60.92
2023-02-11T02:51:20.560Z,57.67
2023-02-11T02:54:00.989Z,57.78
2023-02-11T02:56:44.042Z,51.10
2023-02-11T02:59:33.729Z,50.78
2023-02-11T03:02:23.994Z,51.22
2023-02-11T03:05:13.694Z,52.10
2023-02-11T03:08:04.028Z,49.08
2023-02-11T03:10:37.308Z,48.58
2023-02-11T03:13:09.186Z,48.33
2023-02-11T03:15:45.739Z,47.92
2023-02-11T03:18:17.411Z,50.00
2023-02-11T03:20:51.021Z,49.90
2023-02-11T03:23:23.960Z,48.30
2023-02-11T03:26:11.165Z,45.80
2023-02-11T03:28:54.123Z,48.45
2023-02-11T03:31:43.842Z,47.63
2023-02-11T03:34:33.933Z,44.95
2023-02-11T03:37:14.856Z,44.72
2023-02-11T03:40:04.530Z,45.67
2023-02-11T03:42:54.550Z,42.78
2023-02-11T03:45:27.061Z,43.83
2023-02-11T03:47:59.734Z,41.97
2023-02-11T03:50:33.110Z,44.17
2023-02-11T03:53:04.560Z,41.63
2023-02-11T03:55:37.828Z,40.72
2023-02-11T03:58:08.101Z,37.22
2023-02-11T04:00:41.229Z,39.00
2023-02-11T04:03:12.136Z,39.03
2023-02-11T04:05:42.945Z,38.85
2023-02-11T04:08:13.047Z,37.55
2023-02-11T04:10:43.556Z,36.92
2023-02-11T04:13:16.724Z,37.25
2023-02-11T04:15:48.897Z,36.35
2023-02-11T04:18:19.996Z,32.92
2023-02-11T04:20:50.643Z,32.03
2023-02-11T04:23:21.391Z,36.70
2023-02-11T04:25:52.519Z,36.25
2023-02-11T04:28:23.560Z,32.67
2023-02-11T04:30:54.290Z,32.55
2023-02-11T04:33:25.009Z,33.85
2023-02-11T04:35:55.490Z,31.05
2023-02-11T04:38:28.605Z,34.85
2023-02-11T04:41:02.100Z,32.90
2023-02-11T04:43:32.574Z,34.72
2023-02-11T04:46:03.485Z,34.53
2023-02-11T04:48:34.024Z,33.60
2023-02-11T04:51:04.698Z,66.07
2023-02-11T04:53:34.853Z,33.60
2023-02-11T04:56:04.700Z,33.08
2023-02-11T04:58:34.580Z,33.90
2023-02-11T05:01:12.171Z,33.05
2023-02-11T05:03:42.817Z,37.63
2023-02-11T05:06:13.894Z,32.97
2023-02-11T05:08:44.264Z,31.90
2023-02-11T05:11:19.561Z,39.13
2023-02-11T05:13:50.287Z,38.22
2023-02-11T05:16:21.303Z,75.65
2023-02-11T05:18:52.701Z,32.35
2023-02-11T05:21:23.221Z,29.73
2023-02-11T05:23:53.594Z,30.63
2023-02-11T05:26:23.862Z,29.50
2023-02-11T05:28:54.236Z,29.17
2023-02-11T05:31:24.446Z,28.77
2023-02-11T05:33:54.819Z,28.17
2023-02-11T05:36:25.326Z,28.95
2023-02-11T05:38:55.727Z,33.67
2023-02-11T05:41:25.836Z,29.77
2023-02-11T05:43:56.204Z,28.70
2023-02-11T05:46:26.819Z,28.52
2023-02-11T05:48:58.194Z,27.33
2023-02-11T05:51:29.022Z,27.75
2023-02-11T05:53:59.752Z,28.23
2023-02-11T05:56:30.301Z,26.88
2023-02-11T05:59:01.720Z,28.58
2023-02-11T06:01:32.133Z,25.58
2023-02-11T06:04:02.760Z,27.67
2023-02-11T06:06:33.422Z,28.90
2023-02-11T06:09:03.711Z,29.30
2023-02-11T06:11:34.154Z,29.98
2023-02-11T06:14:04.577Z,27.42
2023-02-11T06:16:34.792Z,27.88
2023-02-11T06:19:05.829Z,27.52
2023-02-11T06:21:43.907Z,27.08
2023-02-11T06:24:17.403Z,26.05
2023-02-11T06:26:49.350Z,25.95
2023-02-11T06:29:19.531Z,25.42
2023-02-11T06:31:50.297Z,25.02
2023-02-11T06:34:20.566Z,26.90
2023-02-11T06:36:50.775Z,24.85
2023-02-11T06:39:21.277Z,24.92
2023-02-11T06:41:51.492Z,21.85
2023-02-11T06:44:22.449Z,22.70
2023-02-11T06:46:52.682Z,24.40
2023-02-11T06:49:23.277Z,23.15
2023-02-11T06:51:54.004Z,22.73
2023-02-11T06:54:24.387Z,19.98
2023-02-11T06:56:54.637Z,20.90
2023-02-11T06:59:25.027Z,21.08
2023-02-11T07:01:55.409Z,22.00
2023-02-11T07:04:25.460Z,21.48
2023-02-11T07:06:55.346Z,22.33
2023-02-11T07:09:25.622Z,22.25
2023-02-11T07:11:57.420Z,22.15
2023-02-11T07:14:28.247Z,21.92
2023-02-11T07:16:59.646Z,21.83
2023-02-11T07:19:29.953Z,23.98
2023-02-11T07:22:00.320Z,22.25
2023-02-11T07:24:30.894Z,21.98
2023-02-11T07:27:01.240Z,20.80
2023-02-11T07:29:31.475Z,20.60
2023-02-11T07:32:01.985Z,20.55
2023-02-11T07:34:32.188Z,20.70
2023-02-11T07:37:02.634Z,24.52
2023-02-11T07:39:33.200Z,20.90
2023-02-11T07:42:03.631Z,19.77
2023-02-11T07:44:34.869Z,20.38
2023-02-11T07:47:06.037Z,19.30
2023-02-11T07:49:36.436Z,19.80
2023-02-11T07:52:06.733Z,20.58
2023-02-11T07:54:37.278Z,21.52
2023-02-11T07:57:08.323Z,19.83
2023-02-11T07:59:38.509Z,19.52
2023-02-11T08:02:09.367Z,20.52
2023-02-11T08:04:39.977Z,19.27
2023-02-11T08:07:10.456Z,20.42
2023-02-11T08:09:40.862Z,20.75
2023-02-11T08:12:11.054Z,20.45
2023-02-11T08:14:41.882Z,19.20
2023-02-11T08:17:12.519Z,20.02
2023-02-11T08:19:43.383Z,18.85
2023-02-11T08:22:14.100Z,18.70
2023-02-11T08:24:44.534Z,20.52
2023-02-11T08:27:14.902Z,18.27
2023-02-11T08:29:45.881Z,18.77
2023-02-11T08:32:16.150Z,19.23
2023-02-11T08:34:46.653Z,20.02
2023-02-11T08:37:17.220Z,19.17
2023-02-11T08:39:48.781Z,19.52
2023-02-11T08:42:19.335Z,19.52
2023-02-11T08:44:50.104Z,19.80
2023-02-11T08:47:20.271Z,19.00
2023-02-11T08:49:51.236Z,22.13
2023-02-11T08:52:22.046Z,19.58
2023-02-11T08:54:52.642Z,18.65
2023-02-11T08:57:22.803Z,19.02
2023-02-11T08:59:53.273Z,18.88
2023-02-11T09:02:23.752Z,18.80
2023-02-11T09:04:54.085Z,18.73
2023-02-11T09:07:24.795Z,18.95
2023-02-11T09:09:55.069Z,19.63
2023-02-11T09:12:25.834Z,18.73
2023-02-11T09:14:56.194Z,17.60
2023-02-11T09:17:26.389Z,17.63
2023-02-11T09:19:56.476Z,17.65
2023-02-11T09:22:26.815Z,18.33
2023-02-11T09:24:57.305Z,17.83
2023-02-11T09:27:27.360Z,18.70
2023-02-11T09:29:57.478Z,17.70
2023-02-11T09:32:27.521Z,17.08
2023-02-11T09:34:57.696Z,17.88
2023-02-11T09:37:28.152Z,18.00
2023-02-11T09:39:58.343Z,19.77
2023-02-11T09:42:48.393Z,20.20
2023-02-11T09:45:27.864Z,18.00
2023-02-11T09:48:17.954Z,17.83
2023-02-11T09:50:54.168Z,18.55
2023-02-11T09:53:29.855Z,18.48
2023-02-11T09:56:02.110Z,18.77
2023-02-11T09:58:37.181Z,19.67
2023-02-11T10:01:26.808Z,19.73
2023-02-11T10:04:17.199Z,19.40
2023-02-11T10:06:54.918Z,21.35
2023-02-11T10:09:44.922Z,18.15
2023-02-11T10:12:30.934Z,17.92
2023-02-11T10:15:21.187Z,18.33
2023-02-11T10:18:10.964Z,18.42
2023-02-11T10:20:45.009Z,17.92
2023-02-11T10:23:19.274Z,21.00
2023-02-11T10:25:52.297Z,19.83
2023-02-11T10:28:27.451Z,21.35
2023-02-11T10:31:05.438Z,26.00
2023-02-11T10:33:44.041Z,23.02
2023-02-11T10:36:15.035Z,24.67
2023-02-11T10:38:45.964Z,25.02
2023-02-11T10:41:19.215Z,24.42
2023-02-11T10:43:50.083Z,22.33
2023-02-11T10:46:22.191Z,22.25
2023-02-11T10:48:55.332Z,20.67
2023-02-11T10:51:30.185Z,20.20
2023-02-11T10:54:14.794Z,21.48
2023-02-11T10:56:51.602Z,20.90
2023-02-11T10:59:29.085Z,21.58
2023-02-11T11:02:02.060Z,23.13
2023-02-11T11:04:38.057Z,24.75
2023-02-11T11:07:28.915Z,31.30
2023-02-11T11:10:01.277Z,32.75
2023-02-11T11:12:51.662Z,26.77
2023-02-11T11:15:23.491Z,24.75
2023-02-11T11:18:04.102Z,24.45
2023-02-11T11:20:42.706Z,23.35
2023-02-11T11:23:25.509Z,24.73
2023-02-11T11:26:06.963Z,25.45
2023-02-11T11:28:57.511Z,23.10
2023-02-11T11:31:30.807Z,23.83
2023-02-11T11:34:02.537Z,25.67
2023-02-11T11:36:41.300Z,26.52
2023-02-11T11:39:21.512Z,25.10
2023-02-11T11:41:53.206Z,25.05
2023-02-11T11:44:43.784Z,24.55
2023-02-11T11:47:20.947Z,25.75
2023-02-11T11:50:01.386Z,25.55
2023-02-11T11:52:51.116Z,25.42
2023-02-11T11:55:27.780Z,26.40
2023-02-11T11:57:57.859Z,24.38
2023-02-11T12:00:47.499Z,26.15
2023-02-11T12:03:37.502Z,25.17
2023-02-11T12:06:27.555Z,26.38
2023-02-11T12:09:04.552Z,26.42
2023-02-11T12:11:54.228Z,28.52
2023-02-11T12:14:44.470Z,30.83
2023-02-11T12:17:25.325Z,30.25
2023-02-11T12:20:15.542Z,31.58
2023-02-11T12:23:05.801Z,30.48
2023-02-11T12:25:55.557Z,32.05
2023-02-11T12:28:45.292Z,33.10
2023-02-11T12:31:29.479Z,33.13
2023-02-11T12:34:07.624Z,34.85
2023-02-11T12:36:57.381Z,34.17
2023-02-11T12:39:48.108Z,38.40
2023-02-11T12:42:53.337Z,39.85
2023-02-11T12:45:44.450Z,40.25
2023-02-11T12:48:35.771Z,40.72
2023-02-11T12:51:17.277Z,41.15
2023-02-11T12:54:07.029Z,39.58
2023-02-11T12:56:46.504Z,42.88
2023-02-11T12:59:23.358Z,43.08
2023-02-11T13:01:55.239Z,41.72
2023-02-11T13:04:32.452Z,44.42
2023-02-11T13:07:07.045Z,41.55
2023-02-11T13:09:57.114Z,46.65
2023-02-11T13:12:47.517Z,47.05
2023-02-11T13:15:18.187Z,50.17
2023-02-11T13:18:08.508Z,52.50
2023-02-11T13:20:58.112Z,51.13
2023-02-11T13:23:42.271Z,46.33
2023-02-11T13:26:32.220Z,43.10
2023-02-11T13:29:22.332Z,43.42
2023-02-11T13:31:57.009Z,44.92
2023-02-11T13:34:47.149Z,45.58
2023-02-11T13:37:37.177Z,47.10
2023-02-11T13:40:27.034Z,67.57
2023-02-11T13:42:59.314Z,65.78
2023-02-11T13:45:49.030Z,62.03
2023-02-11T13:48:27.357Z,56.30
2023-02-11T13:50:59.447Z,55.75
2023-02-11T13:53:30.342Z,51.35
2023-02-11T13:56:12.917Z,50.88
2023-02-11T13:58:52.827Z,49.72
2023-02-11T14:01:43.958Z,46.53
2023-02-11T14:04:45.879Z,45.65
2023-02-11T14:07:50.630Z,46.15
2023-02-11T14:10:40.926Z,44.42
2023-02-11T14:13:30.874Z,45.67
2023-02-11T14:16:08.736Z,45.97
2023-02-11T14:18:58.744Z,42.75
2023-02-11T14:21:38.025Z,42.85
2023-02-11T14:24:28.051Z,43.28
2023-02-11T14:27:22.249Z,41.72
2023-02-11T14:29:58.652Z,42.28
2023-02-11T14:32:39.538Z,53.20
2023-02-11T14:35:29.586Z,100.47
2023-02-11T14:38:08.793Z,45.03
2023-02-11T14:40:58.962Z,46.03
2023-02-11T14:43:31.436Z,42.63
2023-02-11T14:46:02.951Z,41.50
2023-02-11T14:48:36.681Z,41.08
2023-02-11T14:51:12.998Z,40.92
2023-02-11T14:53:47.878Z,42.55
2023-02-11T14:56:38.587Z,43.55
2023-02-11T14:59:22.390Z,44.08
2023-02-11T15:01:53.795Z,39.72
2023-02-11T15:04:34.552Z,39.38
2023-02-11T15:07:13.456Z,39.15
2023-02-11T15:09:44.470Z,39.35
2023-02-11T15:12:20.190Z,38.08
2023-02-11T15:14:51.503Z,38.13
2023-02-11T15:17:30.189Z,38.22
2023-02-11T15:20:02.645Z,37.17
2023-02-11T15:22:35.322Z,36.92
2023-02-11T15:25:18.167Z,40.05
2023-02-11T15:27:50.186Z,38.25
2023-02-11T15:30:29.865Z,39.60
2023-02-11T15:33:05.100Z,39.17
2023-02-11T15:35:42.576Z,42.70
2023-02-11T15:38:15.719Z,47.33
2023-02-11T15:40:53.951Z,44.65
2023-02-11T15:43:24.911Z,44.72
2023-02-11T15:46:02.128Z,44.60
2023-02-11T15:48:40.303Z,42.83
2023-02-11T15:51:31.087Z,47.58
2023-02-11T15:54:04.189Z,42.13
2023-02-11T15:56:44.549Z,41.95
2023-02-11T15:59:23.664Z,48.25
2023-02-11T16:01:54.593Z,41.95
2023-02-11T16:04:26.596Z,38.42
2023-02-11T16:06:58.136Z,37.10
2023-02-11T16:09:34.240Z,35.67
2023-02-11T16:12:09.011Z,33.72
2023-02-11T16:14:40.639Z,34.30
2023-02-11T16:17:13.746Z,35.00
2023-02-11T16:19:49.190Z,42.97
2023-02-11T16:22:25.275Z,42.75
2023-02-11T16:24:56.261Z,43.15
2023-02-11T16:27:45.780Z,142.45
2023-02-11T16:30:35.777Z,43.30
2023-02-11T16:33:07.077Z,40.67
2023-02-11T16:35:38.888Z,39.83
2023-02-11T16:38:09.588Z,39.55
2023-02-11T16:40:39.928Z,40.65
2023-02-11T16:43:11.117Z,38.25
2023-02-11T16:45:42.434Z,40.75
2023-02-11T16:48:15.499Z,40.15
2023-02-11T16:50:49.288Z,41.85
2023-02-11T16:53:27.071Z,39.90
2023-02-11T16:55:57.388Z,42.95
2023-02-11T16:58:28.038Z,40.80
2023-02-11T17:00:58.708Z,42.95
2023-02-11T17:03:30.390Z,40.17
2023-02-11T17:06:04.221Z,40.53
2023-02-11T17:08:35.070Z,41.75
2023-02-11T17:11:06.423Z,41.28
2023-02-11T17:13:38.017Z,43.40
2023-02-11T17:16:08.452Z,43.78
2023-02-11T17:18:39.122Z,44.78
2023-02-11T17:21:09.933Z,45.40
2023-02-11T17:23:40.248Z,47.30
2023-02-11T17:26:11.328Z,44.67
2023-02-11T17:28:41.919Z,46.97
2023-02-11T17:31:13.448Z,47.63
2023-02-11T17:33:44.091Z,45.25
2023-02-11T17:36:14.572Z,44.53
2023-02-11T17:38:44.876Z,44.33
2023-02-11T17:41:15.385Z,44.38
2023-02-11T17:43:46.397Z,44.13
2023-02-11T17:46:16.986Z,44.75
2023-02-11T17:48:47.635Z,42.85
2023-02-11T17:51:37.623Z,44.78
2023-02-11T17:54:09.242Z,44.83
2023-02-11T17:56:39.853Z,43.00
2023-02-11T17:59:11.524Z,43.28
2023-02-11T18:01:42.766Z,43.75
2023-02-11T18:04:15.578Z,44.83
2023-02-11T18:06:46.024Z,43.85
2023-02-11T18:09:16.681Z,44.20
2023-02-11T18:11:46.923Z,44.50
2023-02-11T18:14:17.764Z,45.40
2023-02-11T18:16:48.992Z,44.05
2023-02-11T18:19:19.622Z,46.28
2023-02-11T18:21:50.494Z,47.85
2023-02-11T18:24:20.783Z,56.67
2023-02-11T18:26:51.021Z,49.25
2023-02-11T18:29:21.496Z,49.47
2023-02-11T18:34:37.944Z,45.38
2023-02-11T18:37:08.226Z,46.45
2023-02-11T18:39:38.837Z,47.58
2023-02-11T18:42:09.523Z,46.80
2023-02-11T18:44:40.099Z,46.55
2023-02-11T18:47:10.440Z,44.80
2023-02-11T18:49:40.568Z,45.83
2023-02-11T18:52:10.727Z,47.08
2023-02-11T18:54:41.418Z,44.05
2023-02-11T18:57:12.009Z,43.78
2023-02-11T18:59:42.039Z,44.65
2023-02-11T19:02:13.711Z,42.20
2023-02-11T19:04:44.455Z,42.28
2023-02-11T19:07:15.089Z,42.58
2023-02-11T19:09:45.859Z,44.70
2023-02-11T19:12:16.048Z,44.42
2023-02-11T19:14:46.183Z,44.20
2023-02-11T19:17:16.536Z,43.83
2023-02-11T19:19:46.619Z,43.17
2023-02-11T19:22:17.025Z,44.83
2023-02-11T19:24:47.570Z,50.75
2023-02-11T19:27:18.096Z,44.78
2023-02-11T19:29:48.230Z,45.60
2023-02-11T19:32:18.561Z,45.45
2023-02-11T19:34:49.069Z,44.50
2023-02-11T19:37:19.565Z,43.58
2023-02-11T19:39:50.130Z,45.80
2023-02-11T19:42:20.334Z,44.70
2023-02-11T19:44:50.669Z,46.17
2023-02-11T19:47:21.511Z,45.08
2023-02-11T19:49:51.908Z,45.85
2023-02-11T19:52:22.029Z,45.72
2023-02-11T19:54:52.422Z,45.72
2023-02-11T19:57:23.014Z,47.10
2023-02-11T19:59:56.298Z,50.53
2023-02-11T20:02:26.409Z,48.53
2023-02-11T20:04:56.991Z,45.90
2023-02-11T20:07:27.345Z,47.15
2023-02-11T20:09:57.454Z,48.28
2023-02-11T20:12:27.567Z,46.30
2023-02-11T20:14:58.003Z,47.47
2023-02-11T20:17:28.554Z,46.45
2023-02-11T20:19:59.431Z,48.20
2023-02-11T20:22:29.814Z,47.38
2023-02-11T20:25:00.195Z,47.13
2023-02-11T20:27:30.996Z,48.78
2023-02-11T20:30:01.598Z,48.58
2023-02-11T20:32:33.017Z,45.00
2023-02-11T20:35:03.116Z,41.78
2023-02-11T20:37:33.356Z,45.92
2023-02-11T20:40:03.461Z,45.55
2023-02-11T20:42:33.810Z,46.13
2023-02-11T20:45:04.173Z,48.10
2023-02-11T20:47:35.978Z,48.00
2023-02-11T20:50:07.260Z,47.65
2023-02-11T20:52:38.405Z,47.20
2023-02-11T20:55:08.578Z,43.78
2023-02-11T20:57:39.007Z,47.38
2023-02-11T21:00:10.271Z,48.50
2023-02-11T21:02:40.876Z,48.10
2023-02-11T21:05:11.202Z,48.45
2023-02-11T21:07:42.931Z,46.67
2023-02-11T21:10:13.386Z,49.58
2023-02-11T21:12:43.770Z,51.17
2023-02-11T21:15:14.920Z,49.08
2023-02-11T21:17:45.662Z,51.50
2023-02-11T21:20:16.395Z,48.90
2023-02-11T21:22:46.885Z,50.75
2023-02-11T21:25:17.526Z,49.95
2023-02-11T21:27:47.976Z,50.50
2023-02-11T21:30:18.945Z,49.88
2023-02-11T21:32:49.278Z,51.03
2023-02-11T21:35:19.508Z,51.55
2023-02-11T21:37:49.700Z,50.60
2023-02-11T21:40:22.838Z,49.60
2023-02-11T21:42:53.935Z,50.70
2023-02-11T21:45:24.554Z,50.85
2023-02-11T21:47:55.126Z,53.33
2023-02-11T21:50:25.356Z,51.90
2023-02-11T21:52:55.537Z,50.97
2023-02-11T21:55:25.615Z,50.22
2023-02-11T21:57:55.778Z,50.53
2023-02-11T22:00:26.735Z,49.70
2023-02-11T22:02:57.269Z,49.92
2023-02-11T22:05:27.550Z,48.55
2023-02-11T22:07:58.021Z,49.42
2023-02-11T22:10:28.596Z,50.67
2023-02-11T22:12:58.705Z,48.40
2023-02-11T22:15:28.817Z,51.20
2023-02-11T22:17:59.005Z,50.85
2023-02-11T22:20:29.402Z,51.17
2023-02-11T22:23:01.228Z,50.50
2023-02-11T22:25:31.440Z,52.90
2023-02-11T22:28:01.607Z,52.85
2023-02-11T22:30:31.830Z,55.17
2023-02-11T22:33:02.611Z,55.95
2023-02-11T22:35:33.451Z,52.42
2023-02-11T22:38:03.908Z,51.95
2023-02-11T22:40:34.423Z,53.33
2023-02-11T22:43:04.825Z,52.58
2023-02-11T22:45:36.574Z,51.25
2023-02-11T22:48:07.034Z,49.35
2023-02-11T22:50:38.118Z,52.63
2023-02-11T22:53:08.535Z,57.08
2023-02-11T22:55:42.606Z,55.65
2023-02-11T22:58:13.014Z,54.67
2023-02-11T23:00:44.291Z,57.00
2023-02-11T23:03:15.024Z,62.50
2023-02-11T23:05:45.508Z,85.50
2023-02-11T23:08:15.621Z,61.33
2023-02-11T23:10:46.431Z,63.33
2023-02-11T23:13:17.440Z,59.33
2023-02-11T23:15:48.915Z,55.53
2023-02-11T23:18:19.608Z,59.42
2023-02-11T23:20:49.985Z,71.25
2023-02-11T23:23:20.035Z,72.07
2023-02-11T23:25:50.797Z,65.15
2023-02-11T23:28:21.216Z,64.07
2023-02-11T23:30:51.741Z,62.33
2023-02-11T23:33:22.102Z,63.58
2023-02-11T23:35:52.458Z,61.50
2023-02-11T23:38:22.894Z,61.30
2023-02-11T23:40:53.936Z,61.10
2023-02-11T23:43:24.453Z,60.55
2023-02-11T23:45:55.202Z,52.00
2023-02-11T23:48:25.983Z,46.50
2023-02-11T23:50:56.538Z,58.03
2023-02-11T23:53:26.899Z,52.33
2023-02-11T23:55:57.178Z,55.25
2023-02-11T23:58:27.632Z,52.70
